sensor_id;sensor_type;location;lat;lon;timestamp;pressure;altitude;pressure_sealevel;temperature;humidity
61786;BME280;47692;53.714;11.372;2023-03-21T00:00:35;101040.06;;;6.27;100.00
61786;BME280;47692;53.714;11.372;2023-03-21T00:03:00;101042.66;;;6.23;100.00
61786;BME280;47692;53.714;11.372;2023-03-21T00:05:26;101035.75;;;6.26;100.00
61786;BME280;47692;53.714;11.372;2023-03-21T00:07:51;101038.38;;;6.22;100.00
61786;BME280;47692;53.714;11.372;2023-03-21T00:10:16;101031.44;;;6.21;100.00
61786;BME280;47692;53.714;11.372;2023-03-21T00:12:42;101028.84;;;6.21;100.00
61786;BME280;47692;53.714;11.372;2023-03-21T00:15:10;101031.47;;;6.25;100.00
61786;BME280;47692;53.714;11.372;2023-03-21T00:17:37;101027.97;;;6.26;100.00
61786;BME280;47692;53.714;11.372;2023-03-21T00:20:05;101029.69;;;6.29;100.00
61786;BME280;47692;53.714;11.372;2023-03-21T00:22:35;101028.84;;;6.27;100.00
61786;BME280;47692;53.714;11.372;2023-03-21T00:25:01;101026.25;;;6.22;100.00
61786;BME280;47692;53.714;11.372;2023-03-21T00:27:26;101020.22;;;6.22;100.00
61786;BME280;47692;53.714;11.372;2023-03-21T00:29:52;101027.13;;;6.26;100.00
61786;BME280;47692;53.714;11.372;2023-03-21T00:32:18;101025.41;;;6.22;100.00
61786;BME280;47692;53.714;11.372;2023-03-21T00:34:44;101023.66;;;6.18;100.00
61786;BME280;47692;53.714;11.372;2023-03-21T00:37:10;101015.88;;;6.18;100.00
61786;BME280;47692;53.714;11.372;2023-03-21T00:39:38;101020.19;;;6.19;100.00
61786;BME280;47692;53.714;11.372;2023-03-21T00:42:04;101016.72;;;6.23;100.00
61786;BME280;47692;53.714;11.372;2023-03-21T00:44:30;101011.53;;;6.17;100.00
61786;BME280;47692;53.714;11.372;2023-03-21T00:47:01;101018.47;;;6.18;100.00
61786;BME280;47692;53.714;11.372;2023-03-21T00:49:27;101013.28;;;6.18;100.00
61786;BME280;47692;53.714;11.372;2023-03-21T00:51:57;101009.81;;;6.19;100.00
61786;BME280;47692;53.714;11.372;2023-03-21T00:54:23;101009.81;;;6.19;100.00
61786;BME280;47692;53.714;11.372;2023-03-21T00:56:48;101008.09;;;6.16;100.00
61786;BME280;47692;53.714;11.372;2023-03-21T00:59:13;101001.19;;;6.17;100.00
61786;BME280;47692;53.714;11.372;2023-03-21T01:01:39;101009.84;;;6.16;100.00
61786;BME280;47692;53.714;11.372;2023-03-21T01:04:04;100999.47;;;6.19;100.00
61786;BME280;47692;53.714;11.372;2023-03-21T01:06:35;101000.31;;;6.22;100.00
61786;BME280;47692;53.714;11.372;2023-03-21T01:09:05;100996.00;;;6.18;100.00
61786;BME280;47692;53.714;11.372;2023-03-21T01:11:30;100997.75;;;6.21;100.00
61786;BME280;47692;53.714;11.372;2023-03-21T01:13:56;100996.00;;;6.20;100.00
61786;BME280;47692;53.714;11.372;2023-03-21T01:16:22;100985.63;;;6.20;100.00
61786;BME280;47692;53.714;11.372;2023-03-21T01:18:48;100990.81;;;6.20;100.00
61786;BME280;47692;53.714;11.372;2023-03-21T01:21:13;100992.56;;;6.21;100.00
61786;BME280;47692;53.714;11.372;2023-03-21T01:23:41;100995.13;;;6.22;100.00
61786;BME280;47692;53.714;11.372;2023-03-21T01:26:08;100988.22;;;6.15;100.00
61786;BME280;47692;53.714;11.372;2023-03-21T01:28:35;100999.47;;;6.16;100.00
61786;BME280;47692;53.714;11.372;2023-03-21T01:31:01;100998.59;;;6.15;100.00
61786;BME280;47692;53.714;11.372;2023-03-21T01:33:27;100993.41;;;6.07;100.00
61786;BME280;47692;53.714;11.372;2023-03-21T01:35:53;100993.41;;;6.12;100.00
61786;BME280;47692;53.714;11.372;2023-03-21T01:38:19;100994.28;;;6.09;100.00
61786;BME280;47692;53.714;11.372;2023-03-21T01:40:46;100991.69;;;6.09;100.00
61786;BME280;47692;53.714;11.372;2023-03-21T01:43:22;100992.53;;;6.10;100.00
61786;BME280;47692;53.714;11.372;2023-03-21T01:48:28;100986.47;;;6.14;100.00
61786;BME280;47692;53.714;11.372;2023-03-21T01:50:55;100992.56;;;6.14;100.00
61786;BME280;47692;53.714;11.372;2023-03-21T01:53:23;100986.50;;;6.09;100.00
61786;BME280;47692;53.714;11.372;2023-03-21T01:55:59;100990.81;;;6.15;100.00
61786;BME280;47692;53.714;11.372;2023-03-21T01:58:25;100982.16;;;6.11;100.00
61786;BME280;47692;53.714;11.372;2023-03-21T02:00:51;100985.63;;;6.13;100.00
61786;BME280;47692;53.714;11.372;2023-03-21T02:03:19;100987.34;;;6.11;100.00
61786;BME280;47692;53.714;11.372;2023-03-21T02:08:16;100977.84;;;6.09;100.00
61786;BME280;47692;53.714;11.372;2023-03-21T02:10:43;100973.53;;;6.09;100.00
61786;BME280;47692;53.714;11.372;2023-03-21T02:13:09;100973.53;;;6.09;100.00
61786;BME280;47692;53.714;11.372;2023-03-21T02:15:41;100977.84;;;6.13;100.00
61786;BME280;47692;53.714;11.372;2023-03-21T02:18:16;100975.25;;;6.07;100.00
61786;BME280;47692;53.714;11.372;2023-03-21T02:24:34;100964.91;;;6.07;100.00
61786;BME280;47692;53.714;11.372;2023-03-21T02:37:59;100958.00;;;6.09;100.00
61786;BME280;47692;53.714;11.372;2023-03-21T02:40:41;100959.72;;;6.07;100.00
61786;BME280;47692;53.714;11.372;2023-03-21T02:46:09;100954.53;;;6.04;100.00
61786;BME280;47692;53.714;11.372;2023-03-21T02:48:41;100952.78;;;6.06;100.00
61786;BME280;47692;53.714;11.372;2023-03-21T02:51:12;100951.06;;;6.10;100.00
61786;BME280;47692;53.714;11.372;2023-03-21T02:53:44;100954.53;;;6.07;100.00
61786;BME280;47692;53.714;11.372;2023-03-21T02:56:11;100947.63;;;6.00;100.00
61786;BME280;47692;53.714;11.372;2023-03-21T02:58:37;100951.06;;;6.02;100.00
61786;BME280;47692;53.714;11.372;2023-03-21T03:01:04;100952.81;;;6.03;100.00
61786;BME280;47692;53.714;11.372;2023-03-21T03:03:33;100951.06;;;6.02;100.00
61786;BME280;47692;53.714;11.372;2023-03-21T03:06:01;100955.41;;;5.98;100.00
61786;BME280;47692;53.714;11.372;2023-03-21T03:09:00;100954.53;;;6.01;100.00
61786;BME280;47692;53.714;11.372;2023-03-21T03:11:33;100951.06;;;5.99;100.00
61786;BME280;47692;53.714;11.372;2023-03-21T03:16:42;100954.50;;;5.98;100.00
61786;BME280;47692;53.714;11.372;2023-03-21T03:19:24;100950.19;;;6.00;100.00
61786;BME280;47692;53.714;11.372;2023-03-21T03:21:58;100954.53;;;6.07;100.00
61786;BME280;47692;53.714;11.372;2023-03-21T03:24:30;100955.41;;;6.03;100.00
61786;BME280;47692;53.714;11.372;2023-03-21T03:26:58;100954.53;;;6.04;100.00
61786;BME280;47692;53.714;11.372;2023-03-21T03:29:28;100954.53;;;6.04;100.00
61786;BME280;47692;53.714;11.372;2023-03-21T03:31:59;100951.06;;;6.02;100.00
61786;BME280;47692;53.714;11.372;2023-03-21T03:34:37;100948.50;;;6.01;100.00
61786;BME280;47692;53.714;11.372;2023-03-21T03:37:06;100949.31;;;5.98;100.00
61786;BME280;47692;53.714;11.372;2023-03-21T03:39:37;100943.28;;;5.96;100.00
61786;BME280;47692;53.714;11.372;2023-03-21T03:42:27;100956.25;;;5.99;100.00
61786;BME280;47692;53.714;11.372;2023-03-21T03:44:55;100952.78;;;5.97;100.00
61786;BME280;47692;53.714;11.372;2023-03-21T03:47:29;100946.75;;;5.98;100.00
61786;BME280;47692;53.714;11.372;2023-03-21T03:52:52;100940.69;;;5.99;100.00
61786;BME280;47692;53.714;11.372;2023-03-21T03:55:19;100941.56;;;5.98;100.00
61786;BME280;47692;53.714;11.372;2023-03-21T03:57:46;100939.81;;;5.92;100.00
61786;BME280;47692;53.714;11.372;2023-03-21T04:00:13;100940.69;;;5.90;100.00
61786;BME280;47692;53.714;11.372;2023-03-21T04:02:40;100939.78;;;5.89;100.00
61786;BME280;47692;53.714;11.372;2023-03-21T04:05:06;100937.22;;;5.91;100.00
61786;BME280;47692;53.714;11.372;2023-03-21T04:07:32;100937.22;;;5.91;100.00
61786;BME280;47692;53.714;11.372;2023-03-21T04:09:57;100936.38;;;5.92;100.00
61786;BME280;47692;53.714;11.372;2023-03-21T04:12:23;100938.06;;;5.87;100.00
61786;BME280;47692;53.714;11.372;2023-03-21T04:14:49;100937.22;;;5.91;100.00
61786;BME280;47692;53.714;11.372;2023-03-21T04:17:14;100930.31;;;5.96;100.00
61786;BME280;47692;53.714;11.372;2023-03-21T04:19:40;100933.75;;;5.95;100.00
61786;BME280;47692;53.714;11.372;2023-03-21T04:22:05;100932.91;;;5.88;100.00
61786;BME280;47692;53.714;11.372;2023-03-21T04:24:31;100938.06;;;5.87;100.00
61786;BME280;47692;53.714;11.372;2023-03-21T04:26:58;100935.50;;;5.91;100.00
61786;BME280;47692;53.714;11.372;2023-03-21T04:29:24;100937.19;;;5.95;100.00
61786;BME280;47692;53.714;11.372;2023-03-21T04:31:49;100932.91;;;5.90;100.00
61786;BME280;47692;53.714;11.372;2023-03-21T04:34:15;100934.63;;;5.85;100.00
61786;BME280;47692;53.714;11.372;2023-03-21T04:36:41;100923.41;;;5.82;100.00
61786;BME280;47692;53.714;11.372;2023-03-21T04:39:10;100921.66;;;5.83;100.00
61786;BME280;47692;53.714;11.372;2023-03-21T04:41:43;100930.28;;;5.87;100.00
61786;BME280;47692;53.714;11.372;2023-03-21T04:44:10;100923.41;;;5.82;100.00
61786;BME280;47692;53.714;11.372;2023-03-21T04:46:36;100927.69;;;5.87;100.00
61786;BME280;47692;53.714;11.372;2023-03-21T04:49:02;100922.53;;;5.88;100.00
61786;BME280;47692;53.714;11.372;2023-03-21T04:51:28;100916.47;;;5.83;100.00
61786;BME280;47692;53.714;11.372;2023-03-21T04:53:53;100930.31;;;5.90;100.00
61786;BME280;47692;53.714;11.372;2023-03-21T04:56:23;100925.13;;;5.77;100.00
61786;BME280;47692;53.714;11.372;2023-03-21T04:58:55;100923.41;;;5.86;100.00
61786;BME280;47692;53.714;11.372;2023-03-21T05:01:20;100928.59;;;5.86;100.00
61786;BME280;47692;53.714;11.372;2023-03-21T05:03:46;100926.88;;;5.85;100.00
61786;BME280;47692;53.714;11.372;2023-03-21T05:06:11;100927.72;;;5.83;100.00
61786;BME280;47692;53.714;11.372;2023-03-21T05:08:36;100925.97;;;5.84;100.00
61786;BME280;47692;53.714;11.372;2023-03-21T05:11:02;100928.56;;;5.82;100.00
61786;BME280;47692;53.714;11.372;2023-03-21T05:13:27;100928.56;;;5.82;100.00
61786;BME280;47692;53.714;11.372;2023-03-21T05:15:53;100932.03;;;5.91;100.00
61786;BME280;47692;53.714;11.372;2023-03-21T05:18:18;100923.41;;;5.92;100.00
61786;BME280;47692;53.714;11.372;2023-03-21T05:20:50;100932.88;;;5.93;100.00
61786;BME280;47692;53.714;11.372;2023-03-21T05:23:22;100923.41;;;5.95;100.00
61786;BME280;47692;53.714;11.372;2023-03-21T05:25:48;100935.50;;;5.96;100.00
61786;BME280;47692;53.714;11.372;2023-03-21T05:28:13;100933.75;;;5.95;100.00
61786;BME280;47692;53.714;11.372;2023-03-21T05:30:43;100931.16;;;5.95;100.00
61786;BME280;47692;53.714;11.372;2023-03-21T05:33:09;100926.84;;;5.92;100.00
61786;BME280;47692;53.714;11.372;2023-03-21T05:35:34;100923.41;;;5.95;100.00
61786;BME280;47692;53.714;11.372;2023-03-21T05:38:00;100935.47;;;5.97;100.00
61786;BME280;47692;53.714;11.372;2023-03-21T05:40:25;100931.16;;;5.95;100.00
61786;BME280;47692;53.714;11.372;2023-03-21T05:42:50;100930.31;;;5.99;100.00
61786;BME280;47692;53.714;11.372;2023-03-21T05:45:16;100930.34;;;6.01;100.00
61786;BME280;47692;53.714;11.372;2023-03-21T05:47:41;100932.03;;;5.97;100.00
61786;BME280;47692;53.714;11.372;2023-03-21T05:50:08;100928.59;;;5.98;100.00
61786;BME280;47692;53.714;11.372;2023-03-21T05:52:34;100932.03;;;5.97;100.00
61786;BME280;47692;53.714;11.372;2023-03-21T05:54:59;100927.72;;;5.96;100.00
61786;BME280;47692;53.714;11.372;2023-03-21T05:57:24;100926.00;;;5.98;100.00
61786;BME280;47692;53.714;11.372;2023-03-21T05:59:52;100921.69;;;6.00;100.00
61786;BME280;47692;53.714;11.372;2023-03-21T06:02:18;100922.53;;;5.97;100.00
61786;BME280;47692;53.714;11.372;2023-03-21T06:04:43;100924.28;;;5.98;100.00
61786;BME280;47692;53.714;11.372;2023-03-21T06:07:08;100923.41;;;5.95;100.00
61786;BME280;47692;53.714;11.372;2023-03-21T06:09:34;100921.72;;;6.03;100.00
61786;BME280;47692;53.714;11.372;2023-03-21T06:11:59;100923.41;;;5.98;100.00
61786;BME280;47692;53.714;11.372;2023-03-21T06:14:25;100923.44;;;6.01;100.00
61786;BME280;47692;53.714;11.372;2023-03-21T06:16:50;100921.72;;;6.03;100.00
61786;BME280;47692;53.714;11.372;2023-03-21T06:19:18;100918.25;;;6.04;100.00
61786;BME280;47692;53.714;11.372;2023-03-21T06:21:43;100921.69;;;6.05;100.00
61786;BME280;47692;53.714;11.372;2023-03-21T06:24:09;100919.97;;;6.02;100.00
61786;BME280;47692;53.714;11.372;2023-03-21T06:26:34;100923.44;;;6.04;100.00
61786;BME280;47692;53.714;11.372;2023-03-21T06:29:00;100926.03;;;6.04;100.00
61786;BME280;47692;53.714;11.372;2023-03-21T06:31:26;100923.44;;;6.04;100.00
61786;BME280;47692;53.714;11.372;2023-03-21T06:33:52;100924.28;;;6.05;100.00
61786;BME280;47692;53.714;11.372;2023-03-21T06:36:17;100926.88;;;6.05;100.00
61786;BME280;47692;53.714;11.372;2023-03-21T06:38:42;100932.94;;;6.07;100.00
61786;BME280;47692;53.714;11.372;2023-03-21T06:41:08;100926.88;;;6.12;100.00
61786;BME280;47692;53.714;11.372;2023-03-21T06:43:34;100935.53;;;6.14;100.00
61786;BME280;47692;53.714;11.372;2023-03-21T06:46:00;100938.09;;;6.16;100.00
61786;BME280;47692;53.714;11.372;2023-03-21T06:48:26;100942.44;;;6.22;100.00
61786;BME280;47692;53.714;11.372;2023-03-21T06:50:53;100933.78;;;6.17;100.00
61786;BME280;47692;53.714;11.372;2023-03-21T06:53:20;100928.59;;;6.21;100.00
61786;BME280;47692;53.714;11.372;2023-03-21T06:55:51;100926.88;;;6.19;100.00
61786;BME280;47692;53.714;11.372;2023-03-21T06:58:17;100926.88;;;6.22;100.00
61786;BME280;47692;53.714;11.372;2023-03-21T07:00:42;100930.31;;;6.21;100.00
61786;BME280;47692;53.714;11.372;2023-03-21T07:03:09;100920.81;;;6.26;100.00
61786;BME280;47692;53.714;11.372;2023-03-21T07:05:35;100927.72;;;6.24;100.00
61786;BME280;47692;53.714;11.372;2023-03-21T07:08:01;100927.69;;;6.30;100.00
61786;BME280;47692;53.714;11.372;2023-03-21T07:10:26;100923.38;;;6.35;100.00
61786;BME280;47692;53.714;11.372;2023-03-21T07:12:51;100927.69;;;6.35;100.00
61786;BME280;47692;53.714;11.372;2023-03-21T07:15:17;100931.16;;;6.37;100.00
61786;BME280;47692;53.714;11.372;2023-03-21T07:17:42;100922.50;;;6.36;100.00
61786;BME280;47692;53.714;11.372;2023-03-21T07:20:08;100924.25;;;6.42;100.00
61786;BME280;47692;53.714;11.372;2023-03-21T07:22:35;100928.53;;;6.51;100.00
61786;BME280;47692;53.714;11.372;2023-03-21T07:25:01;100929.41;;;6.53;100.00
61786;BME280;47692;53.714;11.372;2023-03-21T07:27:26;100925.06;;;6.58;100.00
61786;BME280;47692;53.714;11.372;2023-03-21T07:29:51;100926.78;;;6.59;100.00
61786;BME280;47692;53.714;11.372;2023-03-21T07:32:17;100925.06;;;6.58;100.00
61786;BME280;47692;53.714;11.372;2023-03-21T07:34:42;100937.16;;;6.56;100.00
61786;BME280;47692;53.714;11.372;2023-03-21T07:37:07;100934.56;;;6.57;100.00
61786;BME280;47692;53.714;11.372;2023-03-21T07:39:33;100930.25;;;6.58;100.00
61786;BME280;47692;53.714;11.372;2023-03-21T07:41:59;100925.03;;;6.64;100.00
61786;BME280;47692;53.714;11.372;2023-03-21T07:44:25;100921.59;;;6.62;100.00
61786;BME280;47692;53.714;11.372;2023-03-21T07:46:51;100927.63;;;6.61;100.00
61786;BME280;47692;53.714;11.372;2023-03-21T07:49:16;100931.97;;;6.62;100.00
61786;BME280;47692;53.714;11.372;2023-03-21T07:51:41;100924.19;;;6.57;100.00
61786;BME280;47692;53.714;11.372;2023-03-21T07:54:07;100924.19;;;6.62;100.00
61786;BME280;47692;53.714;11.372;2023-03-21T07:56:32;100923.31;;;6.63;100.00
61786;BME280;47692;53.714;11.372;2023-03-21T07:58:57;100926.75;;;6.68;100.00
61786;BME280;47692;53.714;11.372;2023-03-21T08:01:24;100929.34;;;6.68;100.00
61786;BME280;47692;53.714;11.372;2023-03-21T08:03:50;100928.47;;;6.72;100.00
61786;BME280;47692;53.714;11.372;2023-03-21T08:06:20;100921.50;;;6.77;100.00
61786;BME280;47692;53.714;11.372;2023-03-21T08:08:46;100931.84;;;6.90;100.00
61786;BME280;47692;53.714;11.372;2023-03-21T08:11:12;100923.22;;;6.89;100.00
61786;BME280;47692;53.714;11.372;2023-03-21T08:13:37;100918.03;;;6.88;100.00
61786;BME280;47692;53.714;11.372;2023-03-21T08:16:03;100925.75;;;6.99;100.00
61786;BME280;47692;53.714;11.372;2023-03-21T08:18:29;100919.72;;;6.97;100.00
61786;BME280;47692;53.714;11.372;2023-03-21T08:20:55;100914.53;;;6.98;100.00
61786;BME280;47692;53.714;11.372;2023-03-21T08:23:21;100916.25;;;6.99;100.00
61786;BME280;47692;53.714;11.372;2023-03-21T08:25:52;100917.09;;;7.03;100.00
61786;BME280;47692;53.714;11.372;2023-03-21T08:28:18;100917.94;;;7.09;100.00
61786;BME280;47692;53.714;11.372;2023-03-21T08:30:44;100915.31;;;7.13;100.00
61786;BME280;47692;53.714;11.372;2023-03-21T08:33:09;100917.94;;;7.06;100.00
61786;BME280;47692;53.714;11.372;2023-03-21T08:35:35;100913.56;;;7.13;100.00
61786;BME280;47692;53.714;11.372;2023-03-21T08:38:02;100911.84;;;7.15;100.00
61786;BME280;47692;53.714;11.372;2023-03-21T08:40:27;100915.25;;;7.22;100.00
61786;BME280;47692;53.714;11.372;2023-03-21T08:42:53;100914.34;;;7.29;100.00
61786;BME280;47692;53.714;11.372;2023-03-21T08:45:18;100911.72;;;7.32;100.00
61786;BME280;47692;53.714;11.372;2023-03-21T08:47:44;100910.00;;;7.30;100.00
61786;BME280;47692;53.714;11.372;2023-03-21T08:50:12;100908.28;;;7.32;100.00
61786;BME280;47692;53.714;11.372;2023-03-21T08:52:38;100912.63;;;7.31;100.00
61786;BME280;47692;53.714;11.372;2023-03-21T08:55:04;100916.13;;;7.24;100.00
61786;BME280;47692;53.714;11.372;2023-03-21T08:57:29;100910.03;;;7.31;100.00
61786;BME280;47692;53.714;11.372;2023-03-21T08:59:55;100899.59;;;7.36;100.00
61786;BME280;47692;53.714;11.372;2023-03-21T09:02:21;100903.00;;;7.41;100.00
61786;BME280;47692;53.714;11.372;2023-03-21T09:04:46;100905.59;;;7.46;100.00
61786;BME280;47692;53.714;11.372;2023-03-21T09:07:12;100903.78;;;7.57;100.00
61786;BME280;47692;53.714;11.372;2023-03-21T09:09:39;100899.41;;;7.60;100.00
61786;BME280;47692;53.714;11.372;2023-03-21T09:12:06;100900.25;;;7.64;100.00
61786;BME280;47692;53.714;11.372;2023-03-21T09:14:31;100908.91;;;7.63;100.00
61786;BME280;47692;53.714;11.372;2023-03-21T09:16:57;100904.63;;;7.62;100.00
61786;BME280;47692;53.714;11.372;2023-03-21T09:19:22;100902.06;;;7.56;100.00
61786;BME280;47692;53.714;11.372;2023-03-21T09:21:48;100900.34;;;7.52;100.00
61786;BME280;47692;53.714;11.372;2023-03-21T09:24:14;100895.94;;;7.62;100.00
61786;BME280;47692;53.714;11.372;2023-03-21T09:26:39;100893.31;;;7.66;100.00
61786;BME280;47692;53.714;11.372;2023-03-21T09:29:05;100891.63;;;7.62;100.00
61786;BME280;47692;53.714;11.372;2023-03-21T09:31:32;100896.78;;;7.65;100.00
61786;BME280;47692;53.714;11.372;2023-03-21T09:33:57;100892.50;;;7.61;100.00
61786;BME280;47692;53.714;11.372;2023-03-21T09:36:23;100890.75;;;7.65;100.00
61786;BME280;47692;53.714;11.372;2023-03-21T09:38:51;100896.84;;;7.62;100.00
61786;BME280;47692;53.714;11.372;2023-03-21T09:44:20;100896.78;;;7.65;100.00
61786;BME280;47692;53.714;11.372;2023-03-21T09:49:35;100890.66;;;7.74;100.00
61786;BME280;47692;53.714;11.372;2023-03-21T09:52:11;100886.31;;;7.76;100.00
61786;BME280;47692;53.714;11.372;2023-03-21T09:54:41;100888.91;;;7.76;100.00
61786;BME280;47692;53.714;11.372;2023-03-21T09:59:39;100888.81;;;7.85;100.00
61786;BME280;47692;53.714;11.372;2023-03-21T10:02:34;100881.84;;;7.90;100.00
61786;BME280;47692;53.714;11.372;2023-03-21T10:05:02;100879.22;;;7.95;100.00
61786;BME280;47692;53.714;11.372;2023-03-21T10:07:39;100880.94;;;7.93;100.00
61786;BME280;47692;53.714;11.372;2023-03-21T10:10:13;100881.81;;;7.93;100.00
61786;BME280;47692;53.714;11.372;2023-03-21T10:12:41;100876.66;;;7.92;100.00
61786;BME280;47692;53.714;11.372;2023-03-21T10:15:14;100877.50;;;7.92;100.00
61786;BME280;47692;53.714;11.372;2023-03-21T10:18:02;100885.22;;;8.03;100.00
61786;BME280;47692;53.714;11.372;2023-03-21T10:20:34;100881.72;;;8.06;100.00
61786;BME280;47692;53.714;11.372;2023-03-21T10:23:03;100878.25;;;8.07;100.00
61786;BME280;47692;53.714;11.372;2023-03-21T10:25:41;100873.88;;;8.07;100.00
61786;BME280;47692;53.714;11.372;2023-03-21T10:28:11;100870.38;;;8.13;100.00
61786;BME280;47692;53.714;11.372;2023-03-21T10:30:39;100864.34;;;8.08;100.00
61786;BME280;47692;53.714;11.372;2023-03-21T10:33:10;100869.50;;;8.13;100.00
61786;BME280;47692;53.714;11.372;2023-03-21T10:35:38;100866.00;;;8.17;100.00
61786;BME280;47692;53.714;11.372;2023-03-21T10:38:11;100866.03;;;8.14;100.00
61786;BME280;47692;53.714;11.372;2023-03-21T10:40:39;100865.09;;;8.18;100.00
61786;BME280;47692;53.714;11.372;2023-03-21T10:45:53;100860.75;;;8.21;100.00
61786;BME280;47692;53.714;11.372;2023-03-21T10:48:19;100865.03;;;8.24;100.00
61786;BME280;47692;53.714;11.372;2023-03-21T10:50:47;100859.88;;;8.21;100.00
61786;BME280;47692;53.714;11.372;2023-03-21T10:53:34;100865.91;;;8.23;100.00
61786;BME280;47692;53.714;11.372;2023-03-21T10:56:06;100858.97;;;8.25;100.00
61786;BME280;47692;53.714;11.372;2023-03-21T10:58:36;100857.25;;;8.22;100.00
61786;BME280;47692;53.714;11.372;2023-03-21T11:01:06;100857.19;;;8.29;100.00
61786;BME280;47692;53.714;11.372;2023-03-21T11:03:38;100848.53;;;8.30;100.00
61786;BME280;47692;53.714;11.372;2023-03-21T11:06:13;100846.78;;;8.29;100.00
61786;BME280;47692;53.714;11.372;2023-03-21T11:08:46;100851.16;;;8.25;100.00
61786;BME280;47692;53.714;11.372;2023-03-21T11:11:26;100844.16;;;8.30;100.00
61786;BME280;47692;53.714;11.372;2023-03-21T11:13:59;100846.78;;;8.32;100.00
61786;BME280;47692;53.714;11.372;2023-03-21T11:16:38;100847.56;;;8.35;100.00
61786;BME280;47692;53.714;11.372;2023-03-21T11:19:19;100839.78;;;8.35;100.00
61786;BME280;47692;53.714;11.372;2023-03-21T11:21:50;100842.44;;;8.29;100.00
61786;BME280;47692;53.714;11.372;2023-03-21T11:24:17;100845.91;;;8.31;100.00
61786;BME280;47692;53.714;11.372;2023-03-21T11:26:44;100835.50;;;8.31;100.00
61786;BME280;47692;53.714;11.372;2023-03-21T11:29:26;100834.59;;;8.34;100.00
61786;BME280;47692;53.714;11.372;2023-03-21T11:31:56;100830.25;;;8.34;100.00
61786;BME280;47692;53.714;11.372;2023-03-21T11:34:56;100831.09;;;8.36;100.00
61786;BME280;47692;53.714;11.372;2023-03-21T11:37:24;100836.22;;;8.47;100.00
61786;BME280;47692;53.714;11.372;2023-03-21T11:40:05;100824.06;;;8.45;100.00
61786;BME280;47692;53.714;11.372;2023-03-21T11:42:32;100830.94;;;8.50;100.00
61786;BME280;47692;53.714;11.372;2023-03-21T11:45:14;100830.09;;;8.50;100.00
61786;BME280;47692;53.714;11.372;2023-03-21T11:47:40;100825.69;;;8.55;100.00
61786;BME280;47692;53.714;11.372;2023-03-21T11:50:30;100820.41;;;8.61;100.00
61786;BME280;47692;53.714;11.372;2023-03-21T11:53:19;100817.72;;;8.67;100.00
61786;BME280;47692;53.714;11.372;2023-03-21T11:58:54;100810.72;;;8.72;100.00
61786;BME280;47692;53.714;11.372;2023-03-21T12:04:54;100799.44;;;8.72;100.00
61786;BME280;47692;53.714;11.372;2023-03-21T12:10:26;100793.44;;;8.68;100.00
61786;BME280;47692;53.714;11.372;2023-03-21T12:15:26;100788.16;;;8.73;100.00
61786;BME280;47692;53.714;11.372;2023-03-21T12:23:05;100791.63;;;8.73;100.00
61786;BME280;47692;53.714;11.372;2023-03-21T12:25:41;100793.34;;;8.75;100.00
61786;BME280;47692;53.714;11.372;2023-03-21T12:34:40;100781.19;;;8.73;100.00
61786;BME280;47692;53.714;11.372;2023-03-21T12:37:31;100778.59;;;8.73;100.00
61786;BME280;47692;53.714;11.372;2023-03-21T12:40:04;100770.84;;;8.70;100.00
61786;BME280;47692;53.714;11.372;2023-03-21T12:45:38;100770.84;;;8.70;100.00
61786;BME280;47692;53.714;11.372;2023-03-21T12:48:16;100765.59;;;8.73;100.00
61786;BME280;47692;53.714;11.372;2023-03-21T12:50:47;100768.13;;;8.78;100.00
61786;BME280;47692;53.714;11.372;2023-03-21T12:55:43;100763.84;;;8.76;100.00
61786;BME280;47692;53.714;11.372;2023-03-21T12:58:18;100764.81;;;8.67;100.00
61786;BME280;47692;53.714;11.372;2023-03-21T13:00:55;100759.63;;;8.67;100.00
61786;BME280;47692;53.714;11.372;2023-03-21T13:03:38;100747.53;;;8.61;100.00
61786;BME280;47692;53.714;11.372;2023-03-21T13:06:09;100742.31;;;8.64;100.00
61786;BME280;47692;53.714;11.372;2023-03-21T13:08:40;100744.81;;;8.70;100.00
61786;BME280;47692;53.714;11.372;2023-03-21T13:11:11;100743.03;;;8.72;100.00
61786;BME280;47692;53.714;11.372;2023-03-21T13:13:43;100732.56;;;8.77;100.00
61786;BME280;47692;53.714;11.372;2023-03-21T13:18:43;100732.50;;;8.82;100.00
61786;BME280;47692;53.714;11.372;2023-03-21T13:21:42;100729.03;;;8.83;100.00
61786;BME280;47692;53.714;11.372;2023-03-21T13:24:42;100719.44;;;8.86;100.00
61786;BME280;47692;53.714;11.372;2023-03-21T13:29:57;100718.59;;;8.83;100.00
61786;BME280;47692;53.714;11.372;2023-03-21T13:34:54;100711.72;;;8.79;100.00
61786;BME280;47692;53.714;11.372;2023-03-21T13:37:29;100709.16;;;8.76;100.00
61786;BME280;47692;53.714;11.372;2023-03-21T13:40:03;100714.38;;;8.76;100.00
61786;BME280;47692;53.714;11.372;2023-03-21T13:42:33;100710.03;;;8.75;100.00
61786;BME280;47692;53.714;11.372;2023-03-21T13:45:00;100704.91;;;8.71;100.00
61786;BME280;47692;53.714;11.372;2023-03-21T13:55:29;100699.63;;;8.75;100.00
61786;BME280;47692;53.714;11.372;2023-03-21T13:57:55;100692.75;;;8.70;100.00
61786;BME280;47692;53.714;11.372;2023-03-21T14:00:30;100691.88;;;8.71;100.00
61786;BME280;47692;53.714;11.372;2023-03-21T14:02:58;100684.94;;;8.72;100.00
61786;BME280;47692;53.714;11.372;2023-03-21T14:05:25;100684.06;;;8.71;100.00
61786;BME280;47692;53.714;11.372;2023-03-21T14:08:04;100684.03;;;8.73;100.00
61786;BME280;47692;53.714;11.372;2023-03-21T14:10:37;100681.44;;;8.73;100.00
61786;BME280;47692;53.714;11.372;2023-03-21T14:13:05;100678.00;;;8.71;100.00